sensor_id;sensor_type;location;lat;lon;timestamp;temperature;humidity
7234;DHT22;3658;47.992;10.158;2022-09-09T00:01:14;22.60;60.20
7234;DHT22;3658;47.992;10.158;2022-09-09T00:03:51;22.60;60.20
7234;DHT22;3658;47.992;10.158;2022-09-09T00:06:23;22.60;60.10
7234;DHT22;3658;47.992;10.158;2022-09-09T00:08:59;22.60;60.20
7234;DHT22;3658;47.992;10.158;2022-09-09T00:11:33;22.60;60.20
7234;DHT22;3658;47.992;10.158;2022-09-09T00:14:11;22.60;60.20
7234;DHT22;3658;47.992;10.158;2022-09-09T00:16:44;22.60;60.20
7234;DHT22;3658;47.992;10.158;2022-09-09T00:19:20;22.60;60.10
7234;DHT22;3658;47.992;10.158;2022-09-09T00:21:53;22.60;60.20
7234;DHT22;3658;47.992;10.158;2022-09-09T00:24:28;22.60;60.10
7234;DHT22;3658;47.992;10.158;2022-09-09T00:27:00;22.60;60.10
7234;DHT22;3658;47.992;10.158;2022-09-09T00:29:34;22.60;60.10
7234;DHT22;3658;47.992;10.158;2022-09-09T00:32:11;22.60;60.10
7234;DHT22;3658;47.992;10.158;2022-09-09T00:34:48;22.60;60.10
7234;DHT22;3658;47.992;10.158;2022-09-09T00:37:16;22.60;60.10
7234;DHT22;3658;47.992;10.158;2022-09-09T00:39:46;22.60;60.10
7234;DHT22;3658;47.992;10.158;2022-09-09T00:42:16;22.60;60.10
7234;DHT22;3658;47.992;10.158;2022-09-09T00:44:59;22.60;60.10
7234;DHT22;3658;47.992;10.158;2022-09-09T00:47:45;22.60;60.10
7234;DHT22;3658;47.992;10.158;2022-09-09T00:50:35;22.50;60.00
7234;DHT22;3658;47.992;10.158;2022-09-09T00:53:13;22.60;60.10
7234;DHT22;3658;47.992;10.158;2022-09-09T00:55:46;22.50;60.00
7234;DHT22;3658;47.992;10.158;2022-09-09T00:58:14;22.50;60.00
7234;DHT22;3658;47.992;10.158;2022-09-09T01:00:45;22.50;60.00
7234;DHT22;3658;47.992;10.158;2022-09-09T01:03:28;22.50;60.00
7234;DHT22;3658;47.992;10.158;2022-09-09T01:06:02;22.50;60.10
7234;DHT22;3658;47.992;10.158;2022-09-09T01:11:37;22.50;60.00
7234;DHT22;3658;47.992;10.158;2022-09-09T01:14:16;22.50;60.00
7234;DHT22;3658;47.992;10.158;2022-09-09T01:16:48;22.50;60.10
7234;DHT22;3658;47.992;10.158;2022-09-09T01:19:23;22.50;60.10
7234;DHT22;3658;47.992;10.158;2022-09-09T01:21:59;22.50;60.10
7234;DHT22;3658;47.992;10.158;2022-09-09T01:24:36;22.50;60.00
7234;DHT22;3658;47.992;10.158;2022-09-09T01:27:07;22.50;60.10
7234;DHT22;3658;47.992;10.158;2022-09-09T01:29:36;22.50;60.00
7234;DHT22;3658;47.992;10.158;2022-09-09T01:32:37;22.50;60.00
7234;DHT22;3658;47.992;10.158;2022-09-09T01:35:06;22.50;60.00
7234;DHT22;3658;47.992;10.158;2022-09-09T01:37:34;22.50;60.00
7234;DHT22;3658;47.992;10.158;2022-09-09T01:40:02;22.50;60.00
7234;DHT22;3658;47.992;10.158;2022-09-09T01:42:30;22.50;60.00
7234;DHT22;3658;47.992;10.158;2022-09-09T01:44:57;22.50;60.00
7234;DHT22;3658;47.992;10.158;2022-09-09T01:47:24;22.50;60.10
7234;DHT22;3658;47.992;10.158;2022-09-09T01:49:51;22.50;60.00
7234;DHT22;3658;47.992;10.158;2022-09-09T01:52:18;22.50;60.00
7234;DHT22;3658;47.992;10.158;2022-09-09T01:54:45;22.50;60.00
7234;DHT22;3658;47.992;10.158;2022-09-09T01:57:17;22.50;60.00
7234;DHT22;3658;47.992;10.158;2022-09-09T01:59:56;22.50;60.00
7234;DHT22;3658;47.992;10.158;2022-09-09T02:02:30;22.50;60.00
7234;DHT22;3658;47.992;10.158;2022-09-09T02:05:07;22.50;60.00
7234;DHT22;3658;47.992;10.158;2022-09-09T02:07:40;22.50;60.10
7234;DHT22;3658;47.992;10.158;2022-09-09T02:10:11;22.50;60.00
7234;DHT22;3658;47.992;10.158;2022-09-09T02:12:41;22.50;60.00
7234;DHT22;3658;47.992;10.158;2022-09-09T02:15:16;22.50;60.00
7234;DHT22;3658;47.992;10.158;2022-09-09T02:17:46;22.50;60.00
7234;DHT22;3658;47.992;10.158;2022-09-09T02:20:14;22.50;60.00
7234;DHT22;3658;47.992;10.158;2022-09-09T02:22:44;22.50;60.00
7234;DHT22;3658;47.992;10.158;2022-09-09T02:25:15;22.50;60.00
7234;DHT22;3658;47.992;10.158;2022-09-09T02:27:45;22.50;60.00
7234;DHT22;3658;47.992;10.158;2022-09-09T02:30:16;22.50;60.10
7234;DHT22;3658;47.992;10.158;2022-09-09T02:32:45;22.50;60.00
7234;DHT22;3658;47.992;10.158;2022-09-09T02:35:15;22.50;60.00
7234;DHT22;3658;47.992;10.158;2022-09-09T02:37:44;22.50;60.00
7234;DHT22;3658;47.992;10.158;2022-09-09T02:40:14;22.50;60.00
7234;DHT22;3658;47.992;10.158;2022-09-09T02:42:43;22.50;60.00
7234;DHT22;3658;47.992;10.158;2022-09-09T02:45:13;22.50;60.10
7234;DHT22;3658;47.992;10.158;2022-09-09T02:47:48;22.50;60.00
7234;DHT22;3658;47.992;10.158;2022-09-09T02:50:20;22.50;60.00
7234;DHT22;3658;47.992;10.158;2022-09-09T02:53:05;22.50;60.00
7234;DHT22;3658;47.992;10.158;2022-09-09T02:55:38;22.50;60.00
7234;DHT22;3658;47.992;10.158;2022-09-09T02:58:08;22.50;60.00
7234;DHT22;3658;47.992;10.158;2022-09-09T03:00:37;22.50;60.00
7234;DHT22;3658;47.992;10.158;2022-09-09T03:03:06;22.50;60.10
7234;DHT22;3658;47.992;10.158;2022-09-09T03:05:34;22.50;60.00
7234;DHT22;3658;47.992;10.158;2022-09-09T03:08:01;22.50;60.10
7234;DHT22;3658;47.992;10.158;2022-09-09T03:10:28;22.50;60.00
7234;DHT22;3658;47.992;10.158;2022-09-09T03:12:56;22.50;60.00
7234;DHT22;3658;47.992;10.158;2022-09-09T03:15:23;22.40;60.00
7234;DHT22;3658;47.992;10.158;2022-09-09T03:17:54;22.50;60.10
7234;DHT22;3658;47.992;10.158;2022-09-09T03:20:24;22.50;60.60
7234;DHT22;3658;47.992;10.158;2022-09-09T03:22:51;22.50;60.90
7234;DHT22;3658;47.992;10.158;2022-09-09T03:25:19;22.50;61.10
7234;DHT22;3658;47.992;10.158;2022-09-09T03:27:46;22.50;61.20
7234;DHT22;3658;47.992;10.158;2022-09-09T03:30:13;22.50;61.20
7234;DHT22;3658;47.992;10.158;2022-09-09T03:32:41;22.50;61.30
7234;DHT22;3658;47.992;10.158;2022-09-09T03:35:08;22.50;61.40
7234;DHT22;3658;47.992;10.158;2022-09-09T03:37:36;22.50;61.70
7234;DHT22;3658;47.992;10.158;2022-09-09T03:40:05;22.50;61.90
7234;DHT22;3658;47.992;10.158;2022-09-09T03:42:32;22.50;62.10
7234;DHT22;3658;47.992;10.158;2022-09-09T03:44:59;22.50;62.10
7234;DHT22;3658;47.992;10.158;2022-09-09T03:47:26;22.50;62.30
7234;DHT22;3658;47.992;10.158;2022-09-09T03:49:54;22.50;62.30
7234;DHT22;3658;47.992;10.158;2022-09-09T03:52:21;22.50;62.30
7234;DHT22;3658;47.992;10.158;2022-09-09T03:54:52;22.50;62.30
7234;DHT22;3658;47.992;10.158;2022-09-09T03:57:19;22.50;62.90
7234;DHT22;3658;47.992;10.158;2022-09-09T03:59:47;22.50;62.10
7234;DHT22;3658;47.992;10.158;2022-09-09T04:02:14;22.50;62.00
7234;DHT22;3658;47.992;10.158;2022-09-09T04:04:41;22.50;61.90
7234;DHT22;3658;47.992;10.158;2022-09-09T04:07:07;22.50;61.90
7234;DHT22;3658;47.992;10.158;2022-09-09T04:09:34;22.50;61.90
7234;DHT22;3658;47.992;10.158;2022-09-09T04:12:03;22.50;61.80
7234;DHT22;3658;47.992;10.158;2022-09-09T04:14:31;22.50;61.80
7234;DHT22;3658;47.992;10.158;2022-09-09T04:16:58;22.50;61.70
7234;DHT22;3658;47.992;10.158;2022-09-09T04:19:25;22.50;61.70
7234;DHT22;3658;47.992;10.158;2022-09-09T04:21:52;22.50;61.70
7234;DHT22;3658;47.992;10.158;2022-09-09T04:24:19;22.50;61.60
7234;DHT22;3658;47.992;10.158;2022-09-09T04:26:47;22.50;61.60
7234;DHT22;3658;47.992;10.158;2022-09-09T04:29:15;22.50;61.60
7234;DHT22;3658;47.992;10.158;2022-09-09T04:31:42;22.50;61.50
7234;DHT22;3658;47.992;10.158;2022-09-09T04:34:10;22.50;61.50
7234;DHT22;3658;47.992;10.158;2022-09-09T04:36:37;22.50;61.50
7234;DHT22;3658;47.992;10.158;2022-09-09T04:39:06;22.50;61.50
7234;DHT22;3658;47.992;10.158;2022-09-09T04:41:33;22.50;61.50
7234;DHT22;3658;47.992;10.158;2022-09-09T04:44:03;22.50;61.50
7234;DHT22;3658;47.992;10.158;2022-09-09T04:46:31;22.50;61.40
7234;DHT22;3658;47.992;10.158;2022-09-09T04:48:59;22.40;61.30
7234;DHT22;3658;47.992;10.158;2022-09-09T04:51:26;22.40;62.00
7234;DHT22;3658;47.992;10.158;2022-09-09T04:53:53;22.40;61.30
7234;DHT22;3658;47.992;10.158;2022-09-09T04:56:20;22.40;61.20
7234;DHT22;3658;47.992;10.158;2022-09-09T04:58:47;22.50;61.30
7234;DHT22;3658;47.992;10.158;2022-09-09T05:01:16;22.50;61.30
7234;DHT22;3658;47.992;10.158;2022-09-09T05:03:45;22.40;61.20
7234;DHT22;3658;47.992;10.158;2022-09-09T05:06:14;22.40;61.20
7234;DHT22;3658;47.992;10.158;2022-09-09T05:08:43;22.40;61.20
7234;DHT22;3658;47.992;10.158;2022-09-09T05:11:14;22.40;61.20
7234;DHT22;3658;47.992;10.158;2022-09-09T05:13:42;22.40;61.20
7234;DHT22;3658;47.992;10.158;2022-09-09T05:16:10;22.40;61.10
7234;DHT22;3658;47.992;10.158;2022-09-09T05:18:37;22.40;61.10
7234;DHT22;3658;47.992;10.158;2022-09-09T05:21:06;22.40;61.10
7234;DHT22;3658;47.992;10.158;2022-09-09T05:23:33;22.40;61.10
7234;DHT22;3658;47.992;10.158;2022-09-09T05:26:00;22.40;61.10
7234;DHT22;3658;47.992;10.158;2022-09-09T05:28:28;22.40;61.10
7234;DHT22;3658;47.992;10.158;2022-09-09T05:30:58;22.40;61.10
7234;DHT22;3658;47.992;10.158;2022-09-09T05:33:26;22.40;61.00
7234;DHT22;3658;47.992;10.158;2022-09-09T05:35:58;22.40;61.10
7234;DHT22;3658;47.992;10.158;2022-09-09T05:38:27;22.40;61.00
7234;DHT22;3658;47.992;10.158;2022-09-09T05:40:54;22.40;61.00
7234;DHT22;3658;47.992;10.158;2022-09-09T05:43:22;22.40;61.00
7234;DHT22;3658;47.992;10.158;2022-09-09T05:45:59;22.40;61.00
7234;DHT22;3658;47.992;10.158;2022-09-09T05:48:28;22.40;61.00
7234;DHT22;3658;47.992;10.158;2022-09-09T05:50:55;22.40;61.00
7234;DHT22;3658;47.992;10.158;2022-09-09T05:53:22;22.40;61.00
7234;DHT22;3658;47.992;10.158;2022-09-09T05:55:50;22.40;61.00
7234;DHT22;3658;47.992;10.158;2022-09-09T05:58:24;22.40;60.90
7234;DHT22;3658;47.992;10.158;2022-09-09T06:00:51;22.40;61.00
7234;DHT22;3658;47.992;10.158;2022-09-09T06:03:18;22.40;61.00
7234;DHT22;3658;47.992;10.158;2022-09-09T06:05:57;22.40;60.90
7234;DHT22;3658;47.992;10.158;2022-09-09T06:08:24;22.40;60.90
7234;DHT22;3658;47.992;10.158;2022-09-09T06:10:52;22.40;60.90
7234;DHT22;3658;47.992;10.158;2022-09-09T06:13:19;22.40;60.90
7234;DHT22;3658;47.992;10.158;2022-09-09T06:15:49;22.40;60.90
7234;DHT22;3658;47.992;10.158;2022-09-09T06:18:17;22.40;60.90
7234;DHT22;3658;47.992;10.158;2022-09-09T06:20:53;22.40;60.90
7234;DHT22;3658;47.992;10.158;2022-09-09T06:23:20;22.40;60.90
7234;DHT22;3658;47.992;10.158;2022-09-09T06:25:48;22.40;60.90
7234;DHT22;3658;47.992;10.158;2022-09-09T06:28:17;22.40;60.90
7234;DHT22;3658;47.992;10.158;2022-09-09T06:30:44;22.40;60.90
7234;DHT22;3658;47.992;10.158;2022-09-09T06:33:12;22.40;60.90
7234;DHT22;3658;47.992;10.158;2022-09-09T06:35:40;22.40;60.80
7234;DHT22;3658;47.992;10.158;2022-09-09T06:38:07;22.40;60.80
7234;DHT22;3658;47.992;10.158;2022-09-09T06:40:34;22.40;60.90
7234;DHT22;3658;47.992;10.158;2022-09-09T06:43:01;22.40;60.90
7234;DHT22;3658;47.992;10.158;2022-09-09T06:45:29;22.40;60.90
7234;DHT22;3658;47.992;10.158;2022-09-09T06:47:56;22.40;60.90
7234;DHT22;3658;47.992;10.158;2022-09-09T06:50:23;22.40;60.80
7234;DHT22;3658;47.992;10.158;2022-09-09T06:52:50;22.40;60.90
7234;DHT22;3658;47.992;10.158;2022-09-09T06:55:17;22.40;60.90
7234;DHT22;3658;47.992;10.158;2022-09-09T06:57:44;22.40;60.80
7234;DHT22;3658;47.992;10.158;2022-09-09T07:00:12;22.40;60.90
7234;DHT22;3658;47.992;10.158;2022-09-09T07:02:41;22.40;60.80
7234;DHT22;3658;47.992;10.158;2022-09-09T07:05:08;22.40;60.80
7234;DHT22;3658;47.992;10.158;2022-09-09T07:07:36;22.40;60.80
7234;DHT22;3658;47.992;10.158;2022-09-09T07:10:04;22.40;60.80
7234;DHT22;3658;47.992;10.158;2022-09-09T07:12:31;22.40;60.90
7234;DHT22;3658;47.992;10.158;2022-09-09T07:14:58;22.40;60.80
7234;DHT22;3658;47.992;10.158;2022-09-09T07:17:24;22.40;60.80
7234;DHT22;3658;47.992;10.158;2022-09-09T07:19:53;22.40;60.90
7234;DHT22;3658;47.992;10.158;2022-09-09T07:22:20;22.40;60.90
7234;DHT22;3658;47.992;10.158;2022-09-09T07:24:47;22.40;60.80
7234;DHT22;3658;47.992;10.158;2022-09-09T07:27:15;22.40;60.80
7234;DHT22;3658;47.992;10.158;2022-09-09T07:29:42;22.40;60.80
7234;DHT22;3658;47.992;10.158;2022-09-09T07:32:09;22.40;60.80
7234;DHT22;3658;47.992;10.158;2022-09-09T07:34:35;22.40;60.80
7234;DHT22;3658;47.992;10.158;2022-09-09T07:37:04;22.40;60.80
7234;DHT22;3658;47.992;10.158;2022-09-09T07:39:31;22.40;60.80
7234;DHT22;3658;47.992;10.158;2022-09-09T07:41:58;22.40;60.80
7234;DHT22;3658;47.992;10.158;2022-09-09T07:44:25;22.40;60.80
7234;DHT22;3658;47.992;10.158;2022-09-09T07:46:52;22.40;60.80
7234;DHT22;3658;47.992;10.158;2022-09-09T07:49:19;22.40;60.80
7234;DHT22;3658;47.992;10.158;2022-09-09T07:51:47;22.40;60.80
7234;DHT22;3658;47.992;10.158;2022-09-09T07:54:18;22.40;60.80
7234;DHT22;3658;47.992;10.158;2022-09-09T07:56:46;22.40;60.80
7234;DHT22;3658;47.992;10.158;2022-09-09T07:59:13;22.40;60.80
7234;DHT22;3658;47.992;10.158;2022-09-09T08:01:43;22.40;60.80
7234;DHT22;3658;47.992;10.158;2022-09-09T08:04:12;22.40;60.80
7234;DHT22;3658;47.992;10.158;2022-09-09T08:06:42;22.40;60.80
7234;DHT22;3658;47.992;10.158;2022-09-09T08:09:10;22.40;60.80
7234;DHT22;3658;47.992;10.158;2022-09-09T08:11:39;22.40;60.80
7234;DHT22;3658;47.992;10.158;2022-09-09T08:14:07;22.40;60.80
7234;DHT22;3658;47.992;10.158;2022-09-09T08:16:36;22.40;60.80
7234;DHT22;3658;47.992;10.158;2022-09-09T08:19:04;22.40;60.80
7234;DHT22;3658;47.992;10.158;2022-09-09T08:21:34;22.40;60.80
7234;DHT22;3658;47.992;10.158;2022-09-09T08:24:02;22.40;61.10
7234;DHT22;3658;47.992;10.158;2022-09-09T08:26:31;22.40;60.80
7234;DHT22;3658;47.992;10.158;2022-09-09T08:29:02;22.40;60.80
7234;DHT22;3658;47.992;10.158;2022-09-09T08:31:33;22.40;60.80
7234;DHT22;3658;47.992;10.158;2022-09-09T08:34:01;22.40;60.80
7234;DHT22;3658;47.992;10.158;2022-09-09T08:36:30;22.40;60.80
7234;DHT22;3658;47.992;10.158;2022-09-09T08:38:59;22.40;60.80
7234;DHT22;3658;47.992;10.158;2022-09-09T08:41:52;22.40;60.80
7234;DHT22;3658;47.992;10.158;2022-09-09T08:44:32;22.40;60.80
7234;DHT22;3658;47.992;10.158;2022-09-09T08:47:10;22.40;60.80
7234;DHT22;3658;47.992;10.158;2022-09-09T08:49:53;22.40;60.80
7234;DHT22;3658;47.992;10.158;2022-09-09T08:52:28;22.40;60.80
7234;DHT22;3658;47.992;10.158;2022-09-09T08:54:58;22.40;60.80
7234;DHT22;3658;47.992;10.158;2022-09-09T08:57:28;22.40;60.80
7234;DHT22;3658;47.992;10.158;2022-09-09T08:59:58;22.40;60.80
7234;DHT22;3658;47.992;10.158;2022-09-09T09:02:30;22.40;60.80
7234;DHT22;3658;47.992;10.158;2022-09-09T09:05:11;22.40;60.80
7234;DHT22;3658;47.992;10.158;2022-09-09T09:07:50;22.40;60.80
7234;DHT22;3658;47.992;10.158;2022-09-09T09:10:29;22.40;60.80
7234;DHT22;3658;47.992;10.158;2022-09-09T09:13:00;22.40;60.80
7234;DHT22;3658;47.992;10.158;2022-09-09T09:15:32;22.40;60.80
7234;DHT22;3658;47.992;10.158;2022-09-09T09:18:02;22.40;60.80
7234;DHT22;3658;47.992;10.158;2022-09-09T09:20:37;22.40;60.90
7234;DHT22;3658;47.992;10.158;2022-09-09T09:23:15;22.40;60.90
7234;DHT22;3658;47.992;10.158;2022-09-09T09:25:44;22.40;60.90
7234;DHT22;3658;47.992;10.158;2022-09-09T09:28:16;22.40;60.90
7234;DHT22;3658;47.992;10.158;2022-09-09T09:30:49;22.40;60.80
7234;DHT22;3658;47.992;10.158;2022-09-09T09:33:22;22.40;60.90
7234;DHT22;3658;47.992;10.158;2022-09-09T09:35:50;22.40;60.80
7234;DHT22;3658;47.992;10.158;2022-09-09T09:38:20;22.40;60.90
7234;DHT22;3658;47.992;10.158;2022-09-09T09:40:51;22.40;60.90
7234;DHT22;3658;47.992;10.158;2022-09-09T09:43:23;22.40;60.80
7234;DHT22;3658;47.992;10.158;2022-09-09T09:45:52;22.40;60.80
7234;DHT22;3658;47.992;10.158;2022-09-09T09:48:19;22.40;60.80
7234;DHT22;3658;47.992;10.158;2022-09-09T09:50:49;22.40;60.80
7234;DHT22;3658;47.992;10.158;2022-09-09T09:53:20;22.40;60.90
7234;DHT22;3658;47.992;10.158;2022-09-09T09:55:56;22.40;60.90
7234;DHT22;3658;47.992;10.158;2022-09-09T09:58:25;22.40;60.90
7234;DHT22;3658;47.992;10.158;2022-09-09T10:00:54;22.40;60.90
7234;DHT22;3658;47.992;10.158;2022-09-09T10:03:24;22.40;60.80
7234;DHT22;3658;47.992;10.158;2022-09-09T10:05:53;22.40;60.90
7234;DHT22;3658;47.992;10.158;2022-09-09T10:08:22;22.40;60.80
7234;DHT22;3658;47.992;10.158;2022-09-09T10:11:18;22.40;60.90
7234;DHT22;3658;47.992;10.158;2022-09-09T10:13:56;22.40;60.90
7234;DHT22;3658;47.992;10.158;2022-09-09T10:16:45;22.40;60.90
7234;DHT22;3658;47.992;10.158;2022-09-09T10:19:19;22.40;60.90
7234;DHT22;3658;47.992;10.158;2022-09-09T10:22:01;22.40;60.90
7234;DHT22;3658;47.992;10.158;2022-09-09T10:25:11;22.40;60.90
7234;DHT22;3658;47.992;10.158;2022-09-09T10:27:52;22.40;60.80
7234;DHT22;3658;47.992;10.158;2022-09-09T10:30:25;22.40;60.90
7234;DHT22;3658;47.992;10.158;2022-09-09T10:33:01;22.40;60.90
7234;DHT22;3658;47.992;10.158;2022-09-09T10:35:34;22.30;60.80
7234;DHT22;3658;47.992;10.158;2022-09-09T10:38:17;22.40;60.90
7234;DHT22;3658;47.992;10.158;2022-09-09T10:40:58;22.30;60.80
7234;DHT22;3658;47.992;10.158;2022-09-09T10:43:39;22.40;60.90
7234;DHT22;3658;47.992;10.158;2022-09-09T10:46:15;22.40;60.90
7234;DHT22;3658;47.992;10.158;2022-09-09T10:48:56;22.40;60.90
7234;DHT22;3658;47.992;10.158;2022-09-09T10:51:33;22.40;60.90
7234;DHT22;3658;47.992;10.158;2022-09-09T10:54:23;22.40;60.90
7234;DHT22;3658;47.992;10.158;2022-09-09T10:56:54;22.40;60.90
7234;DHT22;3658;47.992;10.158;2022-09-09T10:59:25;22.40;60.90
7234;DHT22;3658;47.992;10.158;2022-09-09T11:01:57;22.40;60.90
7234;DHT22;3658;47.992;10.158;2022-09-09T11:04:32;22.40;60.90
7234;DHT22;3658;47.992;10.158;2022-09-09T11:07:06;22.40;60.90
7234;DHT22;3658;47.992;10.158;2022-09-09T11:09:47;22.40;60.90
7234;DHT22;3658;47.992;10.158;2022-09-09T11:12:19;22.40;60.90
7234;DHT22;3658;47.992;10.158;2022-09-09T11:14:49;22.40;60.90
7234;DHT22;3658;47.992;10.158;2022-09-09T11:17:20;22.30;60.80
7234;DHT22;3658;47.992;10.158;2022-09-09T11:19:51;22.30;60.80
7234;DHT22;3658;47.992;10.158;2022-09-09T11:22:26;22.40;61.00
7234;DHT22;3658;47.992;10.158;2022-09-09T11:24:58;22.30;60.80
7234;DHT22;3658;47.992;10.158;2022-09-09T11:27:29;22.30;60.90
7234;DHT22;3658;47.992;10.158;2022-09-09T11:30:13;22.30;60.80
7234;DHT22;3658;47.992;10.158;2022-09-09T11:33:16;22.30;60.90
7234;DHT22;3658;47.992;10.158;2022-09-09T11:36:01;22.30;60.90
7234;DHT22;3658;47.992;10.158;2022-09-09T11:38:38;22.30;60.90
7234;DHT22;3658;47.992;10.158;2022-09-09T11:41:09;22.30;60.80
7234;DHT22;3658;47.992;10.158;2022-09-09T11:43:40;22.30;60.80
7234;DHT22;3658;47.992;10.158;2022-09-09T11:46:08;22.40;60.90
7234;DHT22;3658;47.992;10.158;2022-09-09T11:48:38;22.30;60.80
7234;DHT22;3658;47.992;10.158;2022-09-09T11:51:11;22.30;60.80
7234;DHT22;3658;47.992;10.158;2022-09-09T11:53:48;22.40;60.90
7234;DHT22;3658;47.992;10.158;2022-09-09T11:56:25;22.40;60.90
7234;DHT22;3658;47.992;10.158;2022-09-09T11:58:58;22.40;60.90
7234;DHT22;3658;47.992;10.158;2022-09-09T12:01:40;22.40;60.90
7234;DHT22;3658;47.992;10.158;2022-09-09T12:04:33;22.40;60.80
7234;DHT22;3658;47.992;10.158;2022-09-09T12:07:05;22.40;60.90
7234;DHT22;3658;47.992;10.158;2022-09-09T12:09:50;22.40;60.90
7234;DHT22;3658;47.992;10.158;2022-09-09T12:12:26;22.40;60.90
7234;DHT22;3658;47.992;10.158;2022-09-09T12:15:02;22.40;60.90
7234;DHT22;3658;47.992;10.158;2022-09-09T12:17:31;22.40;60.90
7234;DHT22;3658;47.992;10.158;2022-09-09T12:20:09;22.40;60.90
7234;DHT22;3658;47.992;10.158;2022-09-09T12:22:47;22.40;60.90
7234;DHT22;3658;47.992;10.158;2022-09-09T12:25:23;22.40;60.90
7234;DHT22;3658;47.992;10.158;2022-09-09T12:28:02;22.40;60.90
7234;DHT22;3658;47.992;10.158;2022-09-09T12:30:34;22.40;60.90
7234;DHT22;3658;47.992;10.158;2022-09-09T12:33:10;22.40;60.90
7234;DHT22;3658;47.992;10.158;2022-09-09T12:35:39;22.40;60.90
7234;DHT22;3658;47.992;10.158;2022-09-09T12:38:13;22.40;60.90
7234;DHT22;3658;47.992;10.158;2022-09-09T12:40:42;22.40;60.90
7234;DHT22;3658;47.992;10.158;2022-09-09T12:43:19;22.40;60.90
7234;DHT22;3658;47.992;10.158;2022-09-09T12:45:47;22.30;60.80
7234;DHT22;3658;47.992;10.158;2022-09-09T12:48:18;22.40;60.90
7234;DHT22;3658;47.992;10.158;2022-09-09T12:50:49;22.30;60.80
7234;DHT22;3658;47.992;10.158;2022-09-09T12:53:22;22.40;60.90
7234;DHT22;3658;47.992;10.158;2022-09-09T12:55:54;22.40;60.90
7234;DHT22;3658;47.992;10.158;2022-09-09T12:58:22;22.40;60.90
7234;DHT22;3658;47.992;10.158;2022-09-09T13:00:51;22.40;60.90
7234;DHT22;3658;47.992;10.158;2022-09-09T13:03:20;22.40;60.90
7234;DHT22;3658;47.992;10.158;2022-09-09T13:05:48;22.40;60.90
7234;DHT22;3658;47.992;10.158;2022-09-09T13:08:17;22.40;60.90
7234;DHT22;3658;47.992;10.158;2022-09-09T13:10:48;22.40;60.90
7234;DHT22;3658;47.992;10.158;2022-09-09T13:13:23;22.40;60.90
7234;DHT22;3658;47.992;10.158;2022-09-09T13:15:55;22.40;60.90
7234;DHT22;3658;47.992;10.158;2022-09-09T13:18:24;22.40;60.90
7234;DHT22;3658;47.992;10.158;2022-09-09T13:20:53;22.40;60.90
7234;DHT22;3658;47.992;10.158;2022-09-09T13:23:27;22.40;60.90
7234;DHT22;3658;47.992;10.158;2022-09-09T13:25:56;22.40;60.90
7234;DHT22;3658;47.992;10.158;2022-09-09T13:28:26;22.40;60.90
7234;DHT22;3658;47.992;10.158;2022-09-09T13:30:57;22.40;60.90
7234;DHT22;3658;47.992;10.158;2022-09-09T13:33:32;22.40;60.90
7234;DHT22;3658;47.992;10.158;2022-09-09T13:36:02;22.40;60.90
7234;DHT22;3658;47.992;10.158;2022-09-09T13:38:33;22.30;60.80
7234;DHT22;3658;47.992;10.158;2022-09-09T13:41:01;22.40;60.90
7234;DHT22;3658;47.992;10.158;2022-09-09T13:43:31;22.40;60.90
7234;DHT22;3658;47.992;10.158;2022-09-09T13:46:02;22.30;60.80
7234;DHT22;3658;47.992;10.158;2022-09-09T13:48:29;22.30;60.80
7234;DHT22;3658;47.992;10.158;2022-09-09T13:51:02;22.30;60.80
7234;DHT22;3658;47.992;10.158;2022-09-09T13:53:32;22.30;60.80
7234;DHT22;3658;47.992;10.158;2022-09-09T13:55:59;22.30;60.80
7234;DHT22;3658;47.992;10.158;2022-09-09T13:58:27;22.40;60.90
7234;DHT22;3658;47.992;10.158;2022-09-09T14:00:55;22.40;60.90
7234;DHT22;3658;47.992;10.158;2022-09-09T14:03:22;22.30;60.80
7234;DHT22;3658;47.992;10.158;2022-09-09T14:05:49;22.30;60.80
7234;DHT22;3658;47.992;10.158;2022-09-09T14:08:23;22.30;60.80
7234;DHT22;3658;47.992;10.158;2022-09-09T14:10:52;22.30;60.80
7234;DHT22;3658;47.992;10.158;2022-09-09T14:13:20;22.30;60.80
7234;DHT22;3658;47.992;10.158;2022-09-09T14:15:48;22.40;60.90
7234;DHT22;3658;47.992;10.158;2022-09-09T14:18:16;22.30;60.80
7234;DHT22;3658;47.992;10.158;2022-09-09T14:20:44;22.30;60.80
7234;DHT22;3658;47.992;10.158;2022-09-09T14:23:12;22.30;60.80
7234;DHT22;3658;47.992;10.158;2022-09-09T14:25:41;22.40;60.90
7234;DHT22;3658;47.992;10.158;2022-09-09T14:28:11;22.30;60.80
7234;DHT22;3658;47.992;10.158;2022-09-09T14:30:39;22.30;60.80
7234;DHT22;3658;47.992;10.158;2022-09-09T14:33:07;22.30;60.80
7234;DHT22;3658;47.992;10.158;2022-09-09T14:35:34;22.30;60.80
7234;DHT22;3658;47.992;10.158;2022-09-09T14:38:01;22.30;60.80
7234;DHT22;3658;47.992;10.158;2022-09-09T14:40:29;22.30;60.80
7234;DHT22;3658;47.992;10.158;2022-09-09T14:42:56;22.30;60.80
7234;DHT22;3658;47.992;10.158;2022-09-09T14:45:25;22.30;60.80
7234;DHT22;3658;47.992;10.158;2022-09-09T14:47:52;22.30;60.80
7234;DHT22;3658;47.992;10.158;2022-09-09T14:50:20;22.30;60.80
7234;DHT22;3658;47.992;10.158;2022-09-09T14:52:47;22.30;60.80
7234;DHT22;3658;47.992;10.158;2022-09-09T14:55:14;22.30;60.80
7234;DHT22;3658;47.992;10.158;2022-09-09T14:57:41;22.30;60.80
7234;DHT22;3658;47.992;10.158;2022-09-09T15:00:10;22.30;60.80
7234;DHT22;3658;47.992;10.158;2022-09-09T15:02:39;22.30;60.80
7234;DHT22;3658;47.992;10.158;2022-09-09T15:05:06;22.30;60.70
7234;DHT22;3658;47.992;10.158;2022-09-09T15:07:34;22.30;60.70
7234;DHT22;3658;47.992;10.158;2022-09-09T15:10:02;22.30;60.70
7234;DHT22;3658;47.992;10.158;2022-09-09T15:12:29;22.30;60.70
7234;DHT22;3658;47.992;10.158;2022-09-09T15:14:56;22.30;61.50
7234;DHT22;3658;47.992;10.158;2022-09-09T15:17:23;22.30;60.70
7234;DHT22;3658;47.992;10.158;2022-09-09T15:19:54;22.30;60.70
7234;DHT22;3658;47.992;10.158;2022-09-09T15:22:21;22.30;60.70
7234;DHT22;3658;47.992;10.158;2022-09-09T15:24:49;22.50;60.90
7234;DHT22;3658;47.992;10.158;2022-09-09T15:27:16;22.30;60.70
7234;DHT22;3658;47.992;10.158;2022-09-09T15:29:43;22.30;60.70
7234;DHT22;3658;47.992;10.158;2022-09-09T15:32:11;22.30;60.70
7234;DHT22;3658;47.992;10.158;2022-09-09T15:34:38;22.30;60.70
7234;DHT22;3658;47.992;10.158;2022-09-09T15:37:06;22.30;60.70
7234;DHT22;3658;47.992;10.158;2022-09-09T15:39:33;22.30;60.70
7234;DHT22;3658;47.992;10.158;2022-09-09T15:42:00;22.30;60.70
7234;DHT22;3658;47.992;10.158;2022-09-09T15:44:27;22.30;60.70
7234;DHT22;3658;47.992;10.158;2022-09-09T15:46:54;22.30;60.70
7234;DHT22;3658;47.992;10.158;2022-09-09T15:49:23;22.30;60.70
7234;DHT22;3658;47.992;10.158;2022-09-09T15:51:52;22.30;60.70
7234;DHT22;3658;47.992;10.158;2022-09-09T15:54:22;22.30;60.70
7234;DHT22;3658;47.992;10.158;2022-09-09T15:56:51;22.30;60.70
7234;DHT22;3658;47.992;10.158;2022-09-09T15:59:20;22.30;60.70
7234;DHT22;3658;47.992;10.158;2022-09-09T16:01:47;22.30;60.70
7234;DHT22;3658;47.992;10.158;2022-09-09T16:04:16;22.30;60.70
7234;DHT22;3658;47.992;10.158;2022-09-09T16:06:49;22.30;60.70
7234;DHT22;3658;47.992;10.158;2022-09-09T16:09:17;22.30;60.70
7234;DHT22;3658;47.992;10.158;2022-09-09T16:11:45;22.30;60.70